Time;durP1;ratioP1;P1;durP2;ratioP2;P2;SDS_P1;SDS_P2;PMS_P1;PMS_P2;Temp;Humidity;BMP_temperature;BMP_pressure;BME280_temperature;BME280_humidity;BME280_pressure;Samples;Min_cycle;Max_cycle;Signal;HPM_P1;HPM_P2
2021/12/07 00:01:16;;;;;;;13.40;6.75;;;3.60;99.90;;;;;;5072372;28;20043;-73
2021/12/07 00:03:42;;;;;;;17.92;11.10;;;3.70;99.90;;;;;;5055200;28;20040;-72
2021/12/07 00:06:08;;;;;;;11.57;6.10;;;3.60;99.90;;;;;;5064175;28;20033;-72
2021/12/07 00:08:35;;;;;;;18.50;10.85;;;3.70;99.90;;;;;;5071393;28;20104;-72
2021/12/07 00:11:01;;;;;;;18.10;11.48;;;3.60;99.90;;;;;;5053235;28;20036;-72
2021/12/07 00:13:32;;;;;;;17.05;10.70;;;3.40;99.90;;;;;;5053390;28;20028;-72
2021/12/07 00:15:58;;;;;;;12.88;7.70;;;3.60;99.90;;;;;;5071556;28;20036;-72
2021/12/07 00:18:23;;;;;;;16.38;10.38;;;3.60;99.90;;;;;;5070844;28;20451;-72
2021/12/07 00:20:49;;;;;;;17.92;11.23;;;3.50;99.90;;;;;;5049484;28;20033;-72
2021/12/07 00:23:16;;;;;;;17.52;11.57;;;3.40;99.90;;;;;;5069297;28;20489;-72
2021/12/07 00:25:41;;;;;;;17.63;9.82;;;3.50;99.90;;;;;;5054385;28;20579;-72
2021/12/07 00:28:07;;;;;;;15.98;10.23;;;3.60;99.90;;;;;;5071490;28;20127;-73
2021/12/07 00:30:34;;;;;;;18.45;11.23;;;3.60;99.90;;;;;;5071251;28;20439;-72
2021/12/07 00:35:39;;;;;;;17.60;10.85;;;3.50;99.90;;;;;;5068966;28;20047;-72
2021/12/07 00:38:14;;;;;;;17.70;10.85;;;3.60;99.90;;;;;;5071521;28;20441;-72
2021/12/07 00:40:40;;;;;;;16.50;10.75;;;3.50;99.90;;;;;;5052980;28;20101;-72
2021/12/07 00:43:07;;;;;;;18.10;11.10;;;3.40;99.90;;;;;;5054723;28;20050;-72
2021/12/07 00:45:34;;;;;;;18.20;11.02;;;3.30;99.90;;;;;;5069195;28;20464;-72
2021/12/07 00:48:01;;;;;;;17.63;11.07;;;3.30;99.90;;;;;;5071197;28;20045;-72
2021/12/07 00:50:28;;;;;;;18.90;12.02;;;3.30;99.90;;;;;;5067853;28;20040;-72
2021/12/07 00:52:55;;;;;;;17.55;11.45;;;3.20;99.90;;;;;;5071043;28;20044;-72
2021/12/07 00:55:26;;;;;;;18.08;10.88;;;3.20;99.90;;;;;;5070028;28;20037;-72
2021/12/07 00:57:54;;;;;;;17.15;11.13;;;3.30;99.90;;;;;;5071077;28;20037;-72
2021/12/07 01:00:20;;;;;;;18.27;11.27;;;3.40;99.90;;;;;;5052656;28;20036;-72
2021/12/07 01:02:46;;;;;;;16.20;10.18;;;3.30;99.90;;;;;;5054221;28;20527;-72
2021/12/07 01:05:27;;;;;;;18.05;10.98;;;3.30;99.90;;;;;;5070311;28;20081;-72
2021/12/07 01:08:18;;;;;;;17.67;11.35;;;3.30;99.90;;;;;;5070937;28;20082;-72
2021/12/07 01:24:41;;;;;;;16.98;10.13;;;3.00;99.90;;;;;;5065579;28;20036;-71
2021/12/07 01:27:25;;;;;;;14.73;9.07;;;3.10;99.90;;;;;;5051965;28;20044;-71
2021/12/07 01:35:31;;;;;;;16.45;8.98;;;2.90;99.90;;;;;;5070719;28;20049;-71
2021/12/07 01:38:23;;;;;;;16.30;10.95;;;3.00;99.90;;;;;;5068936;28;20393;-71
2021/12/07 01:59:36;;;;;;;14.85;9.18;;;2.70;99.90;;;;;;5070460;28;20120;-71
2021/12/07 02:02:09;;;;;;;15.95;10.07;;;2.70;99.90;;;;;;5053954;28;20032;-71
2021/12/07 02:04:35;;;;;;;13.57;9.05;;;2.70;99.90;;;;;;5068186;28;20073;-71
2021/12/07 02:07:02;;;;;;;16.77;9.82;;;2.80;99.90;;;;;;5052879;28;20043;-71
2021/12/07 02:09:28;;;;;;;13.15;9.07;;;2.90;99.90;;;;;;5054075;28;20044;-72
2021/12/07 02:11:59;;;;;;;12.50;8.13;;;2.90;99.90;;;;;;5051341;28;20508;-72
2021/12/07 02:14:26;;;;;;;13.50;9.18;;;2.80;99.90;;;;;;5068450;28;20433;-72
2021/12/07 02:16:55;;;;;;;13.07;9.05;;;2.60;99.90;;;;;;5069978;28;20029;-72
2021/12/07 02:19:22;;;;;;;14.52;9.18;;;2.60;99.90;;;;;;5072357;28;20485;-72
2021/12/07 02:21:49;;;;;;;13.90;8.93;;;2.50;99.90;;;;;;5073912;28;20037;-72
2021/12/07 02:24:15;;;;;;;12.60;8.38;;;2.50;99.90;;;;;;5054430;28;20040;-72
2021/12/07 02:26:41;;;;;;;11.93;8.30;;;2.50;99.90;;;;;;5072474;28;20568;-72
2021/12/07 02:29:08;;;;;;;11.82;7.75;;;2.60;99.90;;;;;;5071051;28;20430;-72
2021/12/07 02:31:34;;;;;;;11.73;7.72;;;2.60;99.90;;;;;;5072747;28;20382;-72
2021/12/07 02:34:01;;;;;;;12.75;8.13;;;2.60;99.90;;;;;;5073857;28;20028;-72
2021/12/07 02:36:27;;;;;;;11.85;7.70;;;2.60;99.90;;;;;;5056304;28;20032;-72
2021/12/07 02:38:53;;;;;;;12.38;8.27;;;2.50;99.90;;;;;;5055814;28;20047;-72
2021/12/07 02:41:19;;;;;;;12.60;7.45;;;2.50;99.90;;;;;;5073465;28;20056;-72
2021/12/07 02:43:45;;;;;;;11.00;7.13;;;2.50;99.90;;;;;;5055241;28;20029;-72
2021/12/07 02:46:11;;;;;;;11.23;7.72;;;2.50;99.90;;;;;;5073768;28;20138;-72
2021/12/07 02:48:37;;;;;;;11.98;8.30;;;2.50;99.90;;;;;;5055655;28;20111;-72
2021/12/07 02:51:03;;;;;;;11.00;7.15;;;2.50;99.90;;;;;;5073312;28;20040;-72
2021/12/07 02:53:30;;;;;;;12.63;7.93;;;2.60;99.90;;;;;;5071956;28;20053;-72
2021/12/07 02:55:58;;;;;;;12.90;8.63;;;2.70;99.90;;;;;;5071999;28;20032;-72
2021/12/07 02:58:24;;;;;;;12.85;8.52;;;2.60;99.90;;;;;;5055167;28;20448;-72
2021/12/07 03:01:07;;;;;;;12.55;8.32;;;2.60;99.90;;;;;;5073279;28;20067;-72
2021/12/07 03:03:37;;;;;;;12.65;8.48;;;2.50;99.90;;;;;;5055637;28;20111;-72
2021/12/07 03:06:18;;;;;;;13.18;9.20;;;2.50;99.90;;;;;;5071219;28;20045;-72
2021/12/07 03:09:13;;;;;;;12.52;8.63;;;2.60;99.90;;;;;;5069279;28;20047;-72
2021/12/07 03:27:59;;;;;;;15.23;10.35;;;2.50;99.90;;;;;;5071396;28;20036;-72
2021/12/07 03:30:26;;;;;;;15.57;10.40;;;2.50;99.90;;;;;;5072059;28;20506;-72
2021/12/07 03:32:51;;;;;;;14.35;10.10;;;2.40;99.90;;;;;;5050471;28;20450;-72
2021/12/07 03:35:17;;;;;;;14.32;9.82;;;2.50;99.90;;;;;;5068957;28;20048;-72
2021/12/07 03:37:43;;;;;;;14.45;9.80;;;2.50;99.90;;;;;;5072719;28;20495;-72
2021/12/07 03:40:10;;;;;;;13.93;9.75;;;2.50;99.90;;;;;;5050398;28;20036;-72
2021/12/07 03:42:36;;;;;;;14.40;9.93;;;2.50;99.90;;;;;;5071486;28;20076;-72
2021/12/07 03:45:05;;;;;;;14.38;10.10;;;2.60;99.90;;;;;;5050528;28;20132;-72
2021/12/07 03:47:30;;;;;;;13.65;9.30;;;2.60;99.90;;;;;;5070079;28;20044;-72
2021/12/07 03:49:56;;;;;;;14.10;9.43;;;2.70;99.90;;;;;;5070847;28;20047;-72
2021/12/07 03:52:21;;;;;;;13.75;9.52;;;2.70;99.90;;;;;;5053076;28;20041;-72
2021/12/07 03:54:47;;;;;;;14.27;9.57;;;2.70;99.90;;;;;;5052747;28;20485;-72
2021/12/07 03:57:14;;;;;;;13.80;9.13;;;2.70;99.90;;;;;;5070705;28;20063;-72
2021/12/07 03:59:40;;;;;;;14.15;9.25;;;2.70;99.90;;;;;;5052110;28;20028;-72
2021/12/07 04:02:07;;;;;;;13.48;9.30;;;2.80;99.90;;;;;;5064384;28;20041;-72
2021/12/07 04:04:33;;;;;;;15.82;9.70;;;2.70;99.90;;;;;;5052270;28;20040;-72
2021/12/07 04:06:59;;;;;;;15.05;10.57;;;2.60;99.90;;;;;;5065765;28;20037;-72
2021/12/07 04:09:25;;;;;;;14.70;10.50;;;2.50;99.90;;;;;;5060829;28;20090;-72
2021/12/07 04:11:50;;;;;;;15.27;10.20;;;2.50;99.90;;;;;;5054067;28;20075;-72
2021/12/07 04:14:16;;;;;;;13.43;8.70;;;2.50;99.90;;;;;;5069909;28;20043;-72
2021/12/07 04:16:42;;;;;;;14.32;10.20;;;2.60;99.90;;;;;;5051857;28;20064;-72
2021/12/07 04:19:08;;;;;;;14.95;9.75;;;2.50;99.90;;;;;;5049320;28;20091;-72
2021/12/07 04:21:33;;;;;;;15.02;9.90;;;2.50;99.90;;;;;;5053869;28;20033;-72
2021/12/07 04:23:59;;;;;;;13.68;9.43;;;2.50;99.90;;;;;;5067615;28;20044;-72
2021/12/07 04:26:25;;;;;;;12.82;8.90;;;2.50;99.90;;;;;;5068353;28;20048;-72
2021/12/07 04:28:51;;;;;;;14.52;8.98;;;2.60;99.90;;;;;;5067849;28;20123;-72
2021/12/07 04:31:17;;;;;;;14.85;9.18;;;2.50;99.90;;;;;;5068888;28;20166;-72
2021/12/07 04:33:43;;;;;;;13.85;9.32;;;2.50;99.90;;;;;;5064311;28;20033;-72
2021/12/07 04:36:10;;;;;;;13.20;9.20;;;2.50;99.90;;;;;;5068166;28;20060;-72
2021/12/07 04:38:37;;;;;;;13.18;9.25;;;2.50;99.90;;;;;;5050119;28;20043;-72
2021/12/07 04:41:03;;;;;;;14.75;9.23;;;2.50;99.90;;;;;;5053156;28;20500;-72
2021/12/07 04:43:29;;;;;;;12.88;8.45;;;2.50;99.90;;;;;;5067504;28;20385;-72
2021/12/07 04:59:07;;;;;;;12.50;7.53;;;2.50;99.90;;;;;;5069526;28;20040;-72
2021/12/07 05:01:33;;;;;;;12.38;8.00;;;2.60;99.90;;;;;;5069498;28;20033;-72
2021/12/07 05:04:04;;;;;;;14.65;7.75;;;2.60;99.90;;;;;;5070049;28;20021;-72
2021/12/07 05:06:32;;;;;;;11.63;6.53;;;2.50;99.90;;;;;;5053387;28;20043;-72
2021/12/07 05:09:06;;;;;;;12.27;7.28;;;2.60;99.90;;;;;;5068090;28;20111;-72
2021/12/07 05:11:47;;;;;;;11.98;6.88;;;2.70;99.90;;;;;;5069169;28;20036;-72
2021/12/07 05:14:19;;;;;;;13.27;7.00;;;2.70;99.90;;;;;;5064608;28;20051;-72
2021/12/07 05:17:27;;;;;;;11.82;6.90;;;2.70;99.90;;;;;;5071675;28;20032;-72
2021/12/07 05:38:37;;;;;;;11.27;7.25;;;2.30;99.90;;;;;;5066787;28;20071;-71
2021/12/07 05:41:06;;;;;;;12.23;7.35;;;2.30;99.90;;;;;;5066131;28;20071;-72
2021/12/07 05:43:32;;;;;;;11.15;6.95;;;2.20;99.90;;;;;;5050644;28;20040;-72
2021/12/07 05:45:58;;;;;;;11.60;7.18;;;2.20;99.90;;;;;;5071004;28;20055;-72
2021/12/07 05:48:23;;;;;;;12.38;7.38;;;2.20;99.90;;;;;;5053290;28;20029;-72
2021/12/07 05:50:49;;;;;;;12.30;7.00;;;2.20;99.90;;;;;;5072248;28;20443;-72
2021/12/07 05:53:15;;;;;;;11.30;6.90;;;2.30;99.90;;;;;;5049926;28;20044;-72
2021/12/07 05:55:41;;;;;;;12.27;7.15;;;2.20;99.90;;;;;;5072524;28;20115;-72
2021/12/07 05:58:08;;;;;;;12.00;7.25;;;2.30;99.90;;;;;;5073155;28;20036;-72
2021/12/07 06:00:36;;;;;;;11.30;6.72;;;2.30;99.90;;;;;;5072139;28;20032;-72
2021/12/07 06:03:07;;;;;;;10.93;6.95;;;2.30;99.90;;;;;;5071680;28;20060;-72
2021/12/07 06:05:35;;;;;;;10.48;6.28;;;2.40;99.90;;;;;;5056083;28;20040;-72
2021/12/07 06:08:01;;;;;;;11.48;6.72;;;2.50;99.90;;;;;;5056086;28;20032;-72
2021/12/07 06:10:26;;;;;;;10.90;6.32;;;2.50;99.90;;;;;;5068004;28;20398;-72
2021/12/07 06:12:53;;;;;;;10.75;6.07;;;2.50;99.90;;;;;;5056621;28;20090;-72
2021/12/07 06:15:21;;;;;;;11.52;6.20;;;2.30;99.90;;;;;;5053122;28;20119;-72
2021/12/07 06:17:47;;;;;;;11.70;6.45;;;2.40;99.90;;;;;;5052922;28;20469;-72
2021/12/07 06:20:14;;;;;;;10.77;5.82;;;2.40;99.90;;;;;;5055509;28;20033;-72
2021/12/07 06:22:39;;;;;;;10.80;5.88;;;2.40;99.90;;;;;;5073932;28;20040;-72
2021/12/07 06:25:07;;;;;;;10.98;6.03;;;2.40;99.90;;;;;;5055856;28;20094;-72
2021/12/07 06:27:33;;;;;;;12.60;5.70;;;2.60;99.90;;;;;;5053815;28;20036;-72
2021/12/07 06:29:58;;;;;;;10.63;5.57;;;2.60;99.90;;;;;;5070380;28;20047;-72
2021/12/07 06:32:25;;;;;;;11.48;5.80;;;2.70;99.90;;;;;;5050405;28;20120;-72
2021/12/07 06:34:51;;;;;;;10.75;5.72;;;2.60;99.90;;;;;;5070389;28;20032;-72
2021/12/07 06:37:16;;;;;;;11.20;5.95;;;2.60;99.90;;;;;;5052835;28;20044;-72
2021/12/07 06:39:42;;;;;;;11.43;5.82;;;2.50;99.90;;;;;;5055760;28;20032;-72
2021/12/07 06:42:08;;;;;;;9.38;5.60;;;2.40;99.90;;;;;;5054094;28;20405;-72
2021/12/07 06:44:33;;;;;;;11.30;6.10;;;2.50;99.90;;;;;;5054871;28;20070;-72
2021/12/07 06:46:59;;;;;;;9.73;5.68;;;2.60;99.90;;;;;;5054306;28;20040;-72
2021/12/07 06:49:25;;;;;;;13.02;6.03;;;2.60;99.90;;;;;;5053645;28;20577;-72
2021/12/07 06:51:51;;;;;;;10.15;5.75;;;2.60;99.90;;;;;;5055676;28;20582;-72
2021/12/07 06:54:17;;;;;;;11.80;5.47;;;2.50;99.90;;;;;;5054918;28;20032;-72
2021/12/07 06:56:43;;;;;;;10.13;5.30;;;2.50;99.90;;;;;;5055712;28;20032;-72
2021/12/07 06:59:09;;;;;;;10.98;5.80;;;2.50;99.90;;;;;;5054471;28;20032;-72
2021/12/07 07:01:35;;;;;;;11.45;6.20;;;2.40;99.90;;;;;;5068381;28;20575;-72
2021/12/07 07:04:01;;;;;;;11.85;6.07;;;2.40;99.90;;;;;;5066320;28;20085;-72
2021/12/07 07:06:27;;;;;;;14.10;6.45;;;2.50;99.90;;;;;;5066580;28;20036;-72
2021/12/07 07:08:52;;;;;;;12.75;6.15;;;2.40;99.90;;;;;;5073194;28;20085;-72
2021/12/07 07:11:19;;;;;;;11.80;6.28;;;2.30;99.90;;;;;;5072684;28;20040;-72
2021/12/07 07:13:46;;;;;;;13.00;6.18;;;2.10;99.90;;;;;;5071609;28;20032;-72
2021/12/07 07:16:12;;;;;;;9.75;5.90;;;2.10;99.90;;;;;;5053787;28;20124;-73
2021/12/07 07:18:38;;;;;;;10.55;6.13;;;2.00;99.90;;;;;;5069674;28;20103;-73
2021/12/07 07:21:04;;;;;;;11.05;6.25;;;2.00;99.90;;;;;;5069663;28;20493;-72
2021/12/07 07:23:30;;;;;;;13.20;6.25;;;2.00;99.90;;;;;;5072694;28;20047;-73
2021/12/07 07:25:56;;;;;;;11.27;6.00;;;2.00;99.90;;;;;;5055951;28;20075;-73
2021/12/07 07:28:27;;;;;;;10.90;5.90;;;1.90;99.90;;;;;;5055305;28;20041;-73
2021/12/07 07:30:53;;;;;;;10.57;6.15;;;1.90;99.90;;;;;;5054042;28;20032;-73
2021/12/07 07:33:18;;;;;;;10.32;4.97;;;2.00;99.90;;;;;;5071451;28;20033;-73
2021/12/07 07:35:45;;;;;;;11.05;5.95;;;2.00;99.90;;;;;;5055753;28;20100;-73
2021/12/07 07:38:11;;;;;;;11.90;6.47;;;2.00;99.90;;;;;;5072028;28;20493;-73
2021/12/07 07:40:36;;;;;;;11.00;5.65;;;2.00;99.90;;;;;;5055556;28;20104;-73
2021/12/07 07:43:02;;;;;;;11.73;6.70;;;2.00;99.90;;;;;;5070137;28;20123;-73
2021/12/07 07:45:28;;;;;;;10.90;5.88;;;2.10;99.90;;;;;;5069002;28;20051;-73
2021/12/07 07:47:54;;;;;;;12.65;6.68;;;2.10;99.90;;;;;;5052183;28;20091;-73
2021/12/07 07:50:21;;;;;;;13.85;6.47;;;2.20;99.90;;;;;;5051969;28;20075;-73
2021/12/07 07:52:47;;;;;;;12.95;6.47;;;2.20;99.90;;;;;;5069402;28;20079;-73
2021/12/07 07:55:13;;;;;;;11.65;6.22;;;2.30;99.90;;;;;;5070478;28;20084;-73
2021/12/07 07:57:40;;;;;;;11.98;5.95;;;2.40;99.90;;;;;;5054310;28;20393;-73
2021/12/07 08:00:09;;;;;;;14.25;5.75;;;2.40;99.90;;;;;;5046482;28;20040;-73
2021/12/07 08:02:35;;;;;;;10.43;5.60;;;2.30;99.90;;;;;;5052862;28;20626;-73
2021/12/07 08:05:01;;;;;;;13.32;6.22;;;2.30;99.90;;;;;;5069242;28;20500;-73
2021/12/07 08:07:26;;;;;;;10.35;5.70;;;2.30;99.90;;;;;;5068868;28;20041;-73
2021/12/07 08:09:52;;;;;;;14.75;6.25;;;2.30;99.90;;;;;;5071902;28;20511;-73
2021/12/07 08:12:18;;;;;;;11.38;5.65;;;2.30;99.90;;;;;;5053432;28;20047;-73
2021/12/07 08:14:43;;;;;;;11.00;5.85;;;2.40;99.90;;;;;;5071072;28;20374;-73
2021/12/07 08:17:09;;;;;;;10.75;5.18;;;2.40;99.90;;;;;;5069359;28;20032;-73
2021/12/07 08:19:36;;;;;;;11.95;5.75;;;2.40;99.90;;;;;;5054578;28;20099;-73
2021/12/07 08:22:02;;;;;;;11.20;5.30;;;2.50;99.90;;;;;;5068935;28;20503;-73
2021/12/07 08:24:27;;;;;;;12.30;5.75;;;2.40;99.90;;;;;;5065875;28;20040;-73
2021/12/07 08:26:53;;;;;;;13.65;6.10;;;2.40;99.90;;;;;;5071100;28;20035;-73
2021/12/07 08:29:19;;;;;;;16.42;6.45;;;2.40;99.90;;;;;;5068397;28;20454;-73
2021/12/07 08:31:44;;;;;;;12.05;6.80;;;2.50;99.90;;;;;;5046840;28;20438;-73
2021/12/07 08:34:10;;;;;;;10.63;5.97;;;2.50;99.90;;;;;;5054216;28;20029;-73
2021/12/07 08:36:36;;;;;;;12.68;6.65;;;2.40;99.90;;;;;;5054742;28;20044;-73
2021/12/07 08:39:03;;;;;;;12.50;6.68;;;2.50;99.90;;;;;;5069352;28;20070;-73
2021/12/07 08:41:29;;;;;;;15.80;7.13;;;2.50;99.90;;;;;;5069255;28;20388;-73
2021/12/07 08:43:54;;;;;;;12.90;6.65;;;2.50;99.90;;;;;;5071258;28;20111;-73
2021/12/07 08:46:20;;;;;;;13.75;6.68;;;2.50;99.90;;;;;;5066662;28;20073;-73
2021/12/07 08:48:46;;;;;;;15.07;6.60;;;2.50;99.90;;;;;;5066382;28;20033;-73
2021/12/07 08:51:12;;;;;;;14.63;6.50;;;2.50;99.90;;;;;;5069976;28;20048;-73
2021/12/07 08:53:45;;;;;;;12.48;7.00;;;2.50;99.90;;;;;;5068944;28;20040;-72
2021/12/07 08:59:40;;;;;;;14.95;6.45;;;2.70;99.90;;;;;;5086990;28;20412;-72
2021/12/07 09:01:44;;;;;;;16.00;7.00;;;2.90;99.90;;;;;;5063454;28;20123;-72
2021/12/07 09:04:10;;;;;;;14.23;6.45;;;2.90;99.90;;;;;;5069960;28;20528;-72
2021/12/07 09:06:37;;;;;;;11.40;6.43;;;2.80;99.90;;;;;;5049715;28;20098;-72
2021/12/07 09:09:04;;;;;;;15.60;6.30;;;2.70;99.90;;;;;;5070448;28;20498;-72
2021/12/07 09:11:29;;;;;;;13.77;6.20;;;2.80;99.90;;;;;;5068996;28;20111;-72
2021/12/07 09:13:55;;;;;;;13.50;7.03;;;2.80;99.90;;;;;;5054204;28;20112;-72
2021/12/07 09:16:21;;;;;;;14.32;6.05;;;2.70;99.90;;;;;;5070593;28;20551;-72
2021/12/07 09:18:48;;;;;;;13.35;6.90;;;2.80;99.90;;;;;;5068638;28;20540;-72
2021/12/07 09:21:15;;;;;;;15.18;6.68;;;2.80;99.90;;;;;;5069843;28;20040;-73
2021/12/07 09:23:41;;;;;;;15.73;6.55;;;2.80;99.90;;;;;;5052274;28;20045;-72
2021/12/07 09:26:08;;;;;;;14.45;6.15;;;2.80;99.90;;;;;;5056951;28;20504;-72
2021/12/07 09:28:33;;;;;;;12.40;6.25;;;2.80;99.90;;;;;;5056890;28;20036;-72
2021/12/07 09:31:00;;;;;;;15.63;6.38;;;2.80;99.90;;;;;;5070164;28;20044;-72
2021/12/07 09:33:27;;;;;;;13.35;6.18;;;2.80;99.90;;;;;;5074255;28;20048;-72
2021/12/07 09:35:54;;;;;;;14.63;6.38;;;2.80;99.90;;;;;;5074675;28;20037;-73
2021/12/07 09:38:22;;;;;;;15.15;5.90;;;2.90;99.90;;;;;;5074446;28;20090;-73
2021/12/07 09:40:48;;;;;;;12.75;5.75;;;3.00;99.90;;;;;;5057438;28;20043;-73
2021/12/07 09:43:15;;;;;;;18.23;5.82;;;3.10;99.90;;;;;;5057941;28;20068;-72
2021/12/07 09:45:42;;;;;;;17.00;5.70;;;3.30;99.90;;;;;;5057788;28;20556;-73
2021/12/07 09:48:10;;;;;;;13.00;5.70;;;3.40;99.90;;;;;;5057625;28;20102;-72
2021/12/07 09:50:39;;;;;;;10.68;5.28;;;3.40;99.90;;;;;;5054772;28;20117;-72
2021/12/07 09:53:08;;;;;;;9.30;4.75;;;3.50;99.90;;;;;;5057666;28;20047;-72
2021/12/07 09:55:36;;;;;;;15.90;5.07;;;3.70;99.90;;;;;;5057344;28;20037;-73
2021/12/07 09:58:02;;;;;;;11.00;4.88;;;3.70;99.90;;;;;;5074297;28;20037;-73
2021/12/07 10:00:28;;;;;;;12.48;4.70;;;3.70;99.90;;;;;;5057560;28;20040;-73
2021/12/07 10:02:54;;;;;;;12.98;5.57;;;3.80;99.90;;;;;;5056781;28;20049;-72
2021/12/07 10:05:21;;;;;;;11.02;4.65;;;3.90;99.90;;;;;;5074215;28;20037;-73
2021/12/07 10:07:49;;;;;;;11.25;4.20;;;4.10;99.90;;;;;;5071548;28;20127;-73
2021/12/07 10:10:30;;;;;;;9.88;4.18;;;4.20;99.90;;;;;;5057440;28;20036;-73
2021/12/07 10:12:56;;;;;;;13.07;4.78;;;4.40;99.90;;;;;;5055196;28;20091;-73
2021/12/07 10:15:22;;;;;;;11.80;4.65;;;4.50;99.90;;;;;;5057364;28;20492;-73
2021/12/07 10:18:13;;;;;;;12.80;4.38;;;4.60;99.90;;;;;;5055620;28;20127;-73
2021/12/07 10:20:43;;;;;;;11.43;4.65;;;4.80;99.90;;;;;;5070308;28;20032;-73
2021/12/07 10:23:18;;;;;;;11.98;5.00;;;4.80;99.90;;;;;;5056269;28;20127;-73
2021/12/07 10:25:47;;;;;;;15.15;5.15;;;4.90;99.90;;;;;;5073682;28;20374;-73
2021/12/07 10:28:39;;;;;;;11.38;4.30;;;5.10;99.90;;;;;;5068193;28;20049;-73
2021/12/07 10:31:16;;;;;;;12.65;4.25;;;5.20;99.90;;;;;;5073426;28;20037;-73
2021/12/07 10:33:49;;;;;;;11.52;5.03;;;5.30;99.90;;;;;;5055483;28;20040;-73
2021/12/07 10:36:25;;;;;;;11.27;4.35;;;5.30;99.90;;;;;;5055971;28;20395;-73
2021/12/07 10:39:10;;;;;;;10.63;3.80;;;5.30;99.90;;;;;;5071746;28;20032;-73
2021/12/07 10:41:39;;;;;;;11.93;4.00;;;5.30;99.90;;;;;;5055906;28;20040;-73
2021/12/07 10:44:07;;;;;;;9.18;3.80;;;5.40;99.90;;;;;;5052948;28;20035;-73
2021/12/07 10:46:42;;;;;;;13.10;3.80;;;5.50;99.90;;;;;;5072943;28;20033;-73
2021/12/07 10:49:13;;;;;;;7.80;3.35;;;5.60;99.90;;;;;;5056712;28;20033;-73
2021/12/07 10:51:41;;;;;;;9.60;3.63;;;5.70;99.90;;;;;;5055279;28;20516;-73
2021/12/07 10:54:07;;;;;;;11.07;3.70;;;5.80;99.90;;;;;;5071340;28;20071;-73
2021/12/07 10:56:37;;;;;;;10.48;3.70;;;5.80;99.90;;;;;;5069476;28;20047;-73
2021/12/07 10:59:08;;;;;;;11.88;3.75;;;5.80;99.90;;;;;;5070409;28;20044;-73
2021/12/07 11:01:37;;;;;;;9.73;3.97;;;5.90;99.90;;;;;;5055190;28;20033;-73
2021/12/07 11:04:30;;;;;;;13.50;4.53;;;6.00;99.90;;;;;;5064062;28;20047;-73
2021/12/07 11:07:23;;;;;;;10.82;3.78;;;6.00;99.90;;;;;;5082870;28;20037;-73
2021/12/07 11:09:59;;;;;;;9.90;4.38;;;6.00;99.90;;;;;;5069657;28;20044;-73
2021/12/07 11:12:35;;;;;;;11.98;4.18;;;6.10;99.90;;;;;;5054073;28;20389;-73
2021/12/07 11:15:01;;;;;;;13.38;4.57;;;6.00;99.90;;;;;;5071115;28;20505;-74
2021/12/07 11:17:33;;;;;;;15.48;4.63;;;6.00;99.90;;;;;;5071855;28;20162;-73
2021/12/07 11:20:01;;;;;;;10.18;3.95;;;6.00;99.90;;;;;;5055687;28;20082;-73
2021/12/07 11:22:33;;;;;;;11.63;4.30;;;6.00;99.90;;;;;;5069845;28;20036;-74
2021/12/07 11:25:03;;;;;;;9.82;4.05;;;6.00;99.90;;;;;;5052601;28;20041;-74
2021/12/07 11:30:20;;;;;;;10.90;4.43;;;6.00;99.90;;;;;;5070711;28;20417;-74
2021/12/07 11:32:56;;;;;;;13.57;3.97;;;5.90;99.90;;;;;;5067891;28;20037;-74
2021/12/07 11:35:34;;;;;;;14.88;3.85;;;5.90;99.90;;;;;;5071390;28;20044;-74
2021/12/07 11:38:04;;;;;;;12.38;3.83;;;6.00;99.90;;;;;;5069848;28;20036;-74
2021/12/07 11:40:38;;;;;;;9.70;3.80;;;5.90;99.90;;;;;;5053944;28;20477;-74
2021/12/07 11:43:19;;;;;;;13.75;3.97;;;6.00;99.90;;;;;;5071965;28;20055;-74
2021/12/07 11:45:45;;;;;;;12.98;3.80;;;5.90;99.90;;;;;;5069681;28;20040;-74
2021/12/07 11:48:12;;;;;;;11.02;3.78;;;5.80;99.90;;;;;;5054474;28;20043;-74
2021/12/07 11:50:48;;;;;;;14.52;4.07;;;5.90;99.90;;;;;;5054140;28;20123;-74
2021/12/07 11:53:23;;;;;;;11.63;3.70;;;5.90;99.90;;;;;;5071220;28;20499;-74
2021/12/07 11:55:54;;;;;;;11.68;3.67;;;6.00;99.90;;;;;;5054088;28;20036;-74
2021/12/07 11:58:21;;;;;;;8.68;2.92;;;6.10;99.90;;;;;;5055396;28;20477;-74
2021/12/07 12:00:54;;;;;;;12.50;4.07;;;6.00;99.90;;;;;;5070608;28;20070;-74
2021/12/07 12:03:22;;;;;;;10.75;3.30;;;6.00;99.90;;;;;;5069687;28;20074;-74
2021/12/07 12:05:49;;;;;;;8.93;2.67;;;6.00;99.90;;;;;;5054093;28;20052;-74
2021/12/07 12:08:19;;;;;;;12.13;3.58;;;6.00;99.90;;;;;;5071490;28;20087;-74
2021/12/07 12:10:48;;;;;;;11.77;3.70;;;6.00;99.90;;;;;;5054263;28;20036;-74
2021/12/07 12:13:21;;;;;;;8.07;2.95;;;6.00;99.90;;;;;;5052821;28;20527;-74
2021/12/07 12:16:20;;;;;;;9.35;2.95;;;6.00;99.90;;;;;;5067612;28;20111;-74
2021/12/07 12:19:06;;;;;;;13.50;4.28;;;6.20;99.90;;;;;;5070855;28;20033;-75
2021/12/07 12:21:55;;;;;;;11.20;3.33;;;6.10;99.90;;;;;;5052835;28;20037;-74
2021/12/07 12:24:32;;;;;;;11.35;3.95;;;6.20;99.90;;;;;;5070184;28;20028;-74
2021/12/07 12:27:21;;;;;;;10.48;3.60;;;6.00;99.90;;;;;;5052152;28;20447;-74
2021/12/07 12:29:50;;;;;;;11.15;3.78;;;6.00;99.90;;;;;;5053603;28;20456;-75
2021/12/07 12:32:29;;;;;;;11.23;3.67;;;6.00;99.90;;;;;;5069386;28;20045;-75
2021/12/07 12:34:56;;;;;;;12.23;4.47;;;5.90;99.90;;;;;;5069367;28;20042;-74
2021/12/07 12:37:25;;;;;;;13.23;3.78;;;5.90;99.90;;;;;;5052465;28;20043;-74
2021/12/07 12:39:55;;;;;;;12.98;4.03;;;6.00;99.90;;;;;;5071047;28;20032;-74
2021/12/07 12:42:40;;;;;;;10.68;3.17;;;6.00;99.90;;;;;;5068264;28;20044;-74
2021/12/07 12:45:25;;;;;;;11.88;3.67;;;6.10;99.90;;;;;;5065199;28;20093;-74
2021/12/07 12:48:03;;;;;;;11.38;4.20;;;6.20;99.90;;;;;;5053355;28;20042;-74
2021/12/07 12:50:33;;;;;;;10.73;3.67;;;6.10;99.90;;;;;;5069773;28;20051;-74
2021/12/07 12:53:12;;;;;;;13.55;3.80;;;6.10;99.90;;;;;;5070199;28;20052;-74
2021/12/07 12:55:53;;;;;;;11.82;4.00;;;6.00;99.90;;;;;;5067104;28;20138;-74
2021/12/07 12:58:29;;;;;;;9.20;3.57;;;6.00;99.90;;;;;;5069010;28;20121;-74
2021/12/07 13:01:10;;;;;;;14.25;4.05;;;6.10;99.90;;;;;;5069632;28;20086;-74
2021/12/07 13:04:00;;;;;;;13.07;4.50;;;6.10;99.90;;;;;;5069767;28;20041;-75
2021/12/07 13:06:31;;;;;;;9.25;3.85;;;6.10;99.90;;;;;;5070048;28;20041;-75
2021/12/07 13:09:07;;;;;;;11.82;4.10;;;6.10;99.90;;;;;;5052440;28;20123;-75
2021/12/07 13:12:07;;;;;;;15.82;4.07;;;6.10;99.90;;;;;;5070911;28;20048;-74
2021/12/07 13:14:32;;;;;;;10.57;3.97;;;6.20;99.90;;;;;;5051763;28;20074;-74
2021/12/07 13:17:15;;;;;;;13.05;4.07;;;6.20;99.90;;;;;;5050961;28;20036;-75
2021/12/07 13:19:59;;;;;;;;;;;6.10;99.90;;;;;;5071050;28;20112;-74
2021/12/07 13:22:32;;;;;;;10.98;3.70;;;6.10;99.90;;;;;;5053584;28;19994;-75
2021/12/07 13:25:11;;;;;;;13.20;3.90;;;6.00;99.90;;;;;;5052697;28;20048;-75
2021/12/07 13:27:37;;;;;;;9.38;3.70;;;6.00;99.90;;;;;;5068805;28;20040;-74
2021/12/07 13:30:08;;;;;;;12.90;3.85;;;6.10;99.90;;;;;;5052636;28;20106;-74
2021/12/07 13:32:34;;;;;;;16.23;4.37;;;6.10;99.90;;;;;;5050338;28;20037;-74
2021/12/07 13:35:03;;;;;;;12.32;3.97;;;6.10;99.90;;;;;;5054029;28;20711;-75
2021/12/07 13:37:45;;;;;;;13.18;3.58;;;6.10;99.90;;;;;;5068838;28;20441;-75
2021/12/07 13:40:20;;;;;;;12.65;5.07;;;6.20;99.90;;;;;;5070753;28;20043;-74
2021/12/07 13:42:50;;;;;;;13.85;5.10;;;6.10;99.90;;;;;;5049476;28;20036;-75
2021/12/07 13:45:19;;;;;;;10.52;3.97;;;6.10;99.90;;;;;;5067875;28;20131;-74
2021/12/07 13:47:47;;;;;;;13.73;4.95;;;6.10;99.90;;;;;;5062791;28;20048;-78
2021/12/07 13:50:14;;;;;;;9.23;4.30;;;6.10;99.90;;;;;;5057890;28;20048;-76
2021/12/07 13:52:43;;;;;;;12.52;4.82;;;6.10;99.90;;;;;;5064935;28;20497;-76
2021/12/07 13:55:13;;;;;;;12.68;4.75;;;6.20;99.90;;;;;;5051743;28;20036;-76
2021/12/07 13:57:40;;;;;;;11.75;4.18;;;6.20;99.90;;;;;;5065052;28;20094;-77
2021/12/07 14:00:29;;;;;;;12.07;4.80;;;6.40;99.90;;;;;;5065461;28;20090;-76
2021/12/07 14:03:07;;;;;;;9.55;5.25;;;6.40;99.90;;;;;;5066946;28;20048;-76
2021/12/07 14:05:39;;;;;;;14.25;4.45;;;6.20;99.90;;;;;;5062994;28;20032;-76
2021/12/07 14:08:08;;;;;;;8.50;2.92;;;6.20;99.90;;;;;;5067059;28;20037;-76
2021/12/07 14:10:46;;;;;;;11.88;4.80;;;6.20;99.90;;;;;;5070427;28;20106;-76
2021/12/07 14:13:14;;;;;;;11.27;4.50;;;6.10;99.90;;;;;;5073716;28;20115;-76
2021/12/07 14:15:43;;;;;;;12.57;3.85;;;6.10;99.90;;;;;;5073920;28;20043;-76
2021/12/07 14:18:12;;;;;;;14.18;4.30;;;6.10;99.90;;;;;;5072828;28;20048;-77
2021/12/07 14:20:44;;;;;;;10.73;4.15;;;6.10;99.90;;;;;;5052938;28;20119;-76
2021/12/07 14:23:34;;;;;;;12.02;3.33;;;5.90;99.90;;;;;;5056067;28;20032;-76
2021/12/07 14:26:12;;;;;;;11.48;4.25;;;6.00;99.90;;;;;;5067924;28;20043;-76
2021/12/07 14:29:02;;;;;;;11.63;4.65;;;6.00;99.90;;;;;;5053399;28;20048;-76
2021/12/07 14:31:51;;;;;;;11.02;4.72;;;5.90;99.90;;;;;;5051144;28;20492;-76
2021/12/07 14:34:23;;;;;;;11.52;4.32;;;5.90;99.90;;;;;;5054763;28;20040;-76